Time;durP1;ratioP1;P1;durP2;ratioP2;P2;SDS_P1;SDS_P2;PMS_P1;PMS_P2;Temp;Humidity;BMP_temperature;BMP_pressure;BME280_temperature;BME280_humidity;BME280_pressure;Samples;Min_cycle;Max_cycle;Signal;HPM_P1;HPM_P2
2022/04/11 00:00:46;;;;;;;5.03;1.70;;;;;;;2.61;74.21;101308.91;5028277;28;20207;-70
2022/04/11 00:03:12;;;;;;;3.30;1.50;;;;;;;2.53;74.20;101299.44;5028825;28;20690;-70
2022/04/11 00:05:39;;;;;;;6.03;1.50;;;;;;;2.48;74.59;101307.44;5020749;28;20203;-70
2022/04/11 00:08:06;;;;;;;3.83;1.80;;;;;;;2.44;74.88;101300.50;5039773;28;20669;-70
2022/04/11 00:10:33;;;;;;;2.87;1.60;;;;;;;2.41;74.88;101306.69;5033716;28;20222;-70
2022/04/11 00:13:03;;;;;;;3.07;1.53;;;;;;;2.40;75.53;101304.06;5028282;28;20248;-70
2022/04/11 00:15:33;;;;;;;3.20;1.80;;;;;;;2.38;75.23;101298.84;5035201;28;20662;-70
2022/04/11 00:18:01;;;;;;;3.63;1.80;;;;;;;2.36;75.72;101297.13;5036878;28;20202;-70
2022/04/11 00:20:27;;;;;;;2.40;1.50;;;;;;;2.35;75.92;101300.66;5030766;28;20202;-70
2022/04/11 00:22:54;;;;;;;4.70;2.00;;;;;;;2.34;75.45;101298.94;5042760;28;20213;-70
2022/04/11 00:25:20;;;;;;;4.37;2.23;;;;;;;2.32;76.13;101291.09;5028232;28;20216;-70
2022/04/11 00:27:47;;;;;;;2.97;1.93;;;;;;;2.30;75.83;101297.28;5027545;28;20671;-70
2022/04/11 00:30:13;;;;;;;5.23;2.30;;;;;;;2.30;75.88;101298.16;5028374;28;20691;-70
2022/04/11 00:32:43;;;;;;;5.53;2.67;;;;;;;2.28;76.49;101297.31;5027399;28;20209;-70
2022/04/11 00:35:11;;;;;;;2.90;2.47;;;;;;;2.26;76.53;101296.47;5031431;28;20309;-70
2022/04/11 00:37:38;;;;;;;3.93;2.17;;;;;;;2.25;76.49;101301.75;5031589;28;20533;-70
2022/04/11 00:40:05;;;;;;;5.37;2.77;;;;;;;2.22;76.34;101299.16;5031351;28;20272;-70
2022/04/11 00:42:32;;;;;;;5.23;1.97;;;;;;;2.19;76.43;101300.09;5031842;28;20202;-70
2022/04/11 00:44:59;;;;;;;4.37;2.40;;;;;;;2.17;76.92;101295.75;5031563;28;20629;-70
2022/04/11 00:47:26;;;;;;;4.27;2.17;;;;;;;2.13;76.26;101296.72;5031025;28;20209;-69
2022/04/11 00:49:55;;;;;;;4.67;2.67;;;;;;;2.07;77.02;101292.44;5029353;28;20233;-69
2022/04/11 00:52:22;;;;;;;3.73;1.93;;;;;;;2.00;77.15;101299.56;5036093;28;20335;-69
2022/04/11 00:54:49;;;;;;;3.87;2.37;;;;;;;1.94;76.71;101293.56;5028951;28;20202;-69
2022/04/11 00:57:16;;;;;;;2.83;2.20;;;;;;;1.89;77.54;101290.16;5025585;28;20661;-70
2022/04/11 00:59:42;;;;;;;3.20;2.30;;;;;;;1.83;77.78;101296.38;5020854;28;20223;-70
2022/04/11 01:02:10;;;;;;;3.57;2.30;;;;;;;1.80;77.75;101291.16;5025163;28;20283;-70
2022/04/11 01:04:36;;;;;;;4.50;2.37;;;;;;;1.76;77.64;101294.75;5024556;28;20205;-70
2022/04/11 01:07:05;;;;;;;3.53;2.20;;;;;;;1.70;77.69;101289.59;5023438;28;20210;-70
2022/04/11 01:09:31;;;;;;;3.50;2.03;;;;;;;1.65;77.86;101286.16;5031107;28;20253;-70
2022/04/11 01:11:58;;;;;;;3.90;2.10;;;;;;;1.61;77.97;101285.34;5030657;28;20195;-71
2022/04/11 01:14:24;;;;;;;4.73;1.93;;;;;;;1.61;78.25;101292.38;5030973;28;20581;-70
2022/04/11 01:16:52;;;;;;;3.17;2.03;;;;;;;1.57;78.16;101291.56;5031003;28;20210;-70
2022/04/11 01:19:20;;;;;;;3.07;2.30;;;;;;;1.57;78.54;101288.94;5030387;28;20229;-69
2022/04/11 01:21:48;;;;;;;2.53;1.80;;;;;;;1.57;79.03;101293.31;5031242;28;20210;-70
2022/04/11 01:24:19;;;;;;;3.40;2.13;;;;;;;1.55;78.95;101288.09;5031093;28;20743;-70
2022/04/11 01:26:47;;;;;;;2.57;2.00;;;;;;;1.55;78.89;101293.34;5017607;28;20195;-70
2022/04/11 01:29:14;;;;;;;3.63;2.10;;;;;;;1.54;79.42;101294.22;5029714;28;20226;-69
2022/04/11 01:31:40;;;;;;;3.10;2.20;;;;;;;1.51;79.21;101293.41;5030908;28;20611;-70
2022/04/11 01:34:07;;;;;;;3.87;2.00;;;;;;;1.48;79.51;101285.56;5030242;28;20214;-70
2022/04/11 01:36:33;;;;;;;3.23;2.13;;;;;;;1.44;79.05;101292.63;5030512;28;20620;-70
2022/04/11 01:39:01;;;;;;;4.10;1.77;;;;;;;1.39;80.01;101289.22;5030500;28;20221;-70
2022/04/11 01:41:28;;;;;;;3.57;2.00;;;;;;;1.35;79.94;101292.78;5029574;28;20702;-69
2022/04/11 01:43:54;;;;;;;2.20;1.90;;;;;;;1.30;80.02;101284.09;5023191;28;20211;-70
2022/04/11 01:46:21;;;;;;;3.37;2.00;;;;;;;1.27;80.00;101287.63;5036491;28;20221;-70
2022/04/11 01:48:47;;;;;;;3.40;1.60;;;;;;;1.25;80.18;101289.44;5027196;28;20225;-70
2022/04/11 01:51:14;;;;;;;2.47;1.73;;;;;;;1.24;80.07;101287.72;5035035;28;20221;-70
2022/04/11 01:53:41;;;;;;;3.37;1.70;;;;;;;1.21;80.31;101279.88;5033273;28;20209;-70
2022/04/11 01:56:09;;;;;;;2.20;1.73;;;;;;;1.20;80.29;101278.16;5019933;28;20553;-70
2022/04/11 01:58:36;;;;;;;4.27;2.03;;;;;;;1.20;80.16;101288.63;5030214;28;20650;-70
2022/04/11 02:01:02;;;;;;;2.80;1.90;;;;;;;1.18;80.27;101285.16;5022609;28;20290;-70
2022/04/11 02:03:29;;;;;;;3.00;1.83;;;;;;;1.18;80.61;101282.53;5029287;28;20585;-70
2022/04/11 02:05:56;;;;;;;3.13;2.07;;;;;;;1.18;80.80;101277.28;5030147;28;20278;-70
2022/04/11 02:08:23;;;;;;;1.93;1.73;;;;;;;1.18;81.16;101269.44;5029357;28;20250;-70
2022/04/11 02:10:49;;;;;;;4.27;1.70;;;;;;;1.18;80.61;101272.06;5030385;28;20233;-70
2022/04/11 02:13:17;;;;;;;4.00;2.00;;;;;;;1.17;81.21;101272.06;5029741;28;20208;-70
2022/04/11 02:15:43;;;;;;;3.90;2.07;;;;;;;1.17;80.84;101272.06;5028852;28;20553;-69
2022/04/11 02:18:10;;;;;;;3.50;2.10;;;;;;;1.12;81.17;101264.25;5029301;28;20237;-70
2022/04/11 02:20:36;;;;;;;4.00;1.70;;;;;;;1.11;81.08;101267.78;5029601;28;20206;-70
2022/04/11 02:23:03;;;;;;;4.43;2.40;;;;;;;1.10;81.60;101262.53;5025361;28;20203;-69
2022/04/11 02:25:32;;;;;;;4.57;2.57;;;;;;;1.08;81.38;101267.81;5032856;28;20208;-69
2022/04/11 02:27:59;;;;;;;2.80;2.37;;;;;;;1.06;81.38;101266.13;5037562;28;20813;-69
2022/04/11 02:30:27;;;;;;;3.27;2.00;;;;;;;1.02;81.66;101262.69;5022938;28;20616;-69
2022/04/11 02:32:55;;;;;;;4.67;1.97;;;;;;;1.00;81.79;101265.31;5010326;28;20210;-69
2022/04/11 02:35:22;;;;;;;3.53;1.90;;;;;;;0.99;82.00;101260.97;5010421;28;20207;-69
2022/04/11 02:37:49;;;;;;;5.03;2.00;;;;;;;0.98;81.77;101259.22;5034303;28;20202;-69
2022/04/11 02:40:16;;;;;;;3.73;1.90;;;;;;;0.99;82.35;101262.72;5049953;28;20216;-69
2022/04/11 02:42:44;;;;;;;4.30;1.97;;;;;;;0.98;81.94;101258.34;5038715;28;20617;-69
2022/04/11 02:45:11;;;;;;;3.17;1.80;;;;;;;0.96;82.03;101252.25;5029505;28;20213;-69
2022/04/11 02:47:39;;;;;;;4.83;2.27;;;;;;;0.96;82.25;101258.38;5029617;28;20228;-70
2022/04/11 02:50:07;;;;;;;4.17;2.10;;;;;;;0.95;82.18;101254.00;5029571;28;20234;-69
2022/04/11 02:52:33;;;;;;;4.37;2.60;;;;;;;0.94;82.07;101254.03;5029691;28;20213;-69
2022/04/11 02:55:01;;;;;;;6.80;2.37;;;;;;;0.92;82.10;101248.81;5031137;28;20206;-69
2022/04/11 02:57:29;;;;;;;5.27;2.47;;;;;;;0.91;82.04;101248.84;5028338;28;20214;-69
2022/04/11 02:59:56;;;;;;;4.90;2.90;;;;;;;0.90;81.91;101239.22;5027534;28;20261;-69
2022/04/11 03:02:23;;;;;;;4.67;2.30;;;;;;;0.92;82.15;101240.06;5028671;28;20880;-69
2022/04/11 03:04:50;;;;;;;5.13;2.50;;;;;;;0.89;81.96;101248.88;5029307;28;20205;-70
2022/04/11 03:07:17;;;;;;;4.07;2.60;;;;;;;0.88;82.15;101241.91;5027668;28;20210;-69
2022/04/11 03:09:43;;;;;;;3.80;2.60;;;;;;;0.88;82.03;101243.66;5028909;28;20241;-69
2022/04/11 03:12:10;;;;;;;4.20;2.83;;;;;;;0.87;82.25;101244.53;5028951;28;20222;-69
2022/04/11 03:14:37;;;;;;;4.00;2.93;;;;;;;0.85;82.10;101238.44;5028864;28;20217;-69
2022/04/11 03:17:04;;;;;;;5.50;3.27;;;;;;;0.83;82.05;101241.09;5024324;28;20207;-69
2022/04/11 03:19:31;;;;;;;4.27;2.70;;;;;;;0.80;81.83;101241.13;5034120;28;20229;-69
2022/04/11 03:21:59;;;;;;;3.63;2.37;;;;;;;0.80;82.00;101243.75;5028527;28;20210;-69
2022/04/11 03:24:26;;;;;;;4.03;2.27;;;;;;;0.78;81.73;101236.78;5028974;28;20210;-69
2022/04/11 03:26:52;;;;;;;6.53;2.50;;;;;;;0.74;81.96;101238.56;5026898;28;20198;-69
2022/04/11 03:29:19;;;;;;;3.83;2.13;;;;;;;0.73;82.04;101233.34;5033846;28;20707;-69
2022/04/11 03:31:46;;;;;;;5.23;2.63;;;;;;;0.72;82.03;101232.50;5029692;28;20229;-70
2022/04/11 03:34:12;;;;;;;3.03;1.80;;;;;;;0.71;81.85;101237.78;5019754;28;20305;-69
2022/04/11 03:36:39;;;;;;;3.50;2.20;;;;;;;0.71;82.24;101232.53;5021548;28;20808;-70
2022/04/11 03:39:07;;;;;;;3.80;2.30;;;;;;;0.68;82.19;101231.69;5022265;28;20227;-69
2022/04/11 03:41:33;;;;;;;2.93;2.30;;;;;;;0.66;82.29;101232.59;5026831;28;20202;-70
2022/04/11 03:44:00;;;;;;;3.53;2.47;;;;;;;0.65;82.31;101242.22;5024245;28;20202;-69
2022/04/11 03:46:27;;;;;;;3.57;2.60;;;;;;;0.64;81.98;101240.47;5020746;28;20207;-69
2022/04/11 03:48:54;;;;;;;4.20;3.00;;;;;;;0.64;82.25;101237.84;5023695;28;20222;-69
2022/04/11 03:51:21;;;;;;;4.67;3.10;;;;;;;0.62;82.31;101242.25;5021789;28;20602;-69
2022/04/11 03:53:48;;;;;;;5.50;3.57;;;;;;;0.60;82.24;101243.16;5022471;28;20203;-69
2022/04/11 03:56:17;;;;;;;5.00;3.30;;;;;;;0.59;82.43;101239.66;5020611;28;20713;-70
2022/04/11 03:58:43;;;;;;;4.17;3.47;;;;;;;0.58;82.48;101240.53;5021832;28;20238;-70
2022/04/11 04:01:10;;;;;;;4.70;3.17;;;;;;;0.57;82.39;101237.94;5023714;28;20209;-69
2022/04/11 04:03:37;;;;;;;6.30;3.40;;;;;;;0.56;82.32;101246.69;5018942;28;20288;-69
2022/04/11 04:06:04;;;;;;;5.93;3.27;;;;;;;0.55;82.55;101251.06;5021234;28;20238;-70
2022/04/11 04:08:31;;;;;;;5.00;2.97;;;;;;;0.55;82.57;101253.69;5021292;28;20252;-69
2022/04/11 04:10:57;;;;;;;6.27;3.83;;;;;;;0.54;82.68;101257.19;5025929;28;20229;-70
2022/04/11 04:13:25;;;;;;;3.20;2.87;;;;;;;0.54;82.62;101257.19;5021540;28;20207;-69
2022/04/11 04:15:52;;;;;;;4.33;2.80;;;;;;;0.55;82.79;101260.69;5016046;28;20203;-69
2022/04/11 04:18:18;;;;;;;2.37;2.13;;;;;;;0.56;82.97;101254.56;5017293;28;20222;-70
2022/04/11 04:20:45;;;;;;;5.20;2.20;;;;;;;0.60;83.33;101264.13;5019135;28;20312;-69
2022/04/11 04:23:11;;;;;;;2.43;2.20;;;;;;;0.62;83.12;101251.88;5019786;28;20210;-70
2022/04/11 04:25:38;;;;;;;5.13;2.70;;;;;;;0.65;83.88;101259.69;5015274;28;20211;-69
2022/04/11 04:28:05;;;;;;;5.53;2.80;;;;;;;0.68;83.49;101257.91;5019660;28;20206;-69
2022/04/11 04:30:33;;;;;;;4.43;2.47;;;;;;;0.72;83.79;101258.69;5019178;28;20207;-69
2022/04/11 04:33:00;;;;;;;5.97;2.17;;;;;;;0.75;84.08;101258.66;5012671;28;20202;-69
2022/04/11 04:35:27;;;;;;;3.13;2.20;;;;;;;0.77;84.14;101258.66;5017384;28;20214;-69
2022/04/11 04:37:54;;;;;;;5.00;2.40;;;;;;;0.80;84.55;101256.84;5023187;28;20202;-69
2022/04/11 04:40:21;;;;;;;4.03;2.50;;;;;;;0.84;84.32;101255.06;5021278;28;20210;-69
2022/04/11 04:42:47;;;;;;;3.87;2.40;;;;;;;0.87;84.77;101260.28;5027018;28;20213;-69
2022/04/11 04:45:14;;;;;;;5.57;2.77;;;;;;;0.90;84.56;101257.59;5020102;28;20274;-69
2022/04/11 04:47:42;;;;;;;4.60;2.70;;;;;;;0.92;84.87;101261.06;5015148;28;20207;-70
2022/04/11 04:50:09;;;;;;;3.53;2.47;;;;;;;0.94;85.08;101256.66;5019779;28;20629;-69
2022/04/11 04:52:37;;;;;;;4.17;2.30;;;;;;;0.96;84.68;101258.38;5021214;28;21053;-69
2022/04/11 04:55:04;;;;;;;4.10;2.27;;;;;;;0.99;84.75;101262.72;5025329;28;20222;-70
2022/04/11 04:57:30;;;;;;;4.97;2.67;;;;;;;0.99;85.09;101260.09;5020989;28;20731;-69
2022/04/11 04:59:57;;;;;;;3.80;2.50;;;;;;;1.01;85.27;101260.94;5027242;28;20218;-69
2022/04/11 05:02:23;;;;;;;4.83;2.80;;;;;;;1.02;85.10;101260.06;5027033;28;20956;-69
2022/04/11 05:04:51;;;;;;;4.07;2.90;;;;;;;1.02;85.25;101263.53;5019404;28;20203;-69
2022/04/11 05:07:18;;;;;;;6.23;2.80;;;;;;;1.02;85.25;101258.28;5027530;28;20210;-69
2022/04/11 05:09:44;;;;;;;3.60;2.37;;;;;;;1.05;85.23;101262.63;5020916;28;20238;-69
2022/04/11 05:12:11;;;;;;;3.23;2.43;;;;;;;1.08;85.55;101262.56;5028644;28;20733;-69
2022/04/11 05:14:37;;;;;;;4.50;3.03;;;;;;;1.10;85.44;101266.03;5021139;28;20214;-70
2022/04/11 05:17:04;;;;;;;5.27;2.80;;;;;;;1.13;85.46;101263.38;5022238;28;20215;-69
2022/04/11 05:19:31;;;;;;;5.47;2.80;;;;;;;1.15;85.44;101252.84;5015776;28;20227;-69
2022/04/11 05:21:59;;;;;;;3.97;2.43;;;;;;;1.18;85.65;101258.06;5029731;28;20207;-69
2022/04/11 05:24:25;;;;;;;5.30;2.73;;;;;;;1.20;85.56;101254.53;5023991;28;20214;-69
2022/04/11 05:26:52;;;;;;;4.33;2.37;;;;;;;1.23;85.73;101251.00;5024881;28;20254;-69
2022/04/11 05:29:18;;;;;;;5.37;2.53;;;;;;;1.24;85.55;101248.34;5021117;28;20240;-69
2022/04/11 05:31:45;;;;;;;4.13;2.70;;;;;;;1.28;85.92;101254.41;5021610;28;20227;-69
2022/04/11 05:34:11;;;;;;;4.47;2.83;;;;;;;1.32;86.01;101253.47;5025452;28;20206;-69
2022/04/11 05:36:38;;;;;;;6.23;2.77;;;;;;;1.36;86.24;101261.28;5020694;28;20241;-69
2022/04/11 05:39:05;;;;;;;3.87;2.73;;;;;;;1.40;86.47;101262.09;5020052;28;20239;-69
2022/04/11 05:41:32;;;;;;;9.37;5.60;;;;;;;1.44;86.35;101261.13;5018291;28;20210;-70
2022/04/11 05:43:58;;;;;;;12.03;5.97;;;;;;;1.48;86.16;101260.19;5018856;28;20214;-70
2022/04/11 05:46:25;;;;;;;9.03;5.80;;;;;;;1.53;86.17;101266.25;5025511;28;20531;-69
2022/04/11 05:48:51;;;;;;;10.63;6.17;;;;;;;1.58;86.50;101256.53;5027556;28;20229;-70
2022/04/11 05:51:18;;;;;;;6.20;3.30;;;;;;;1.63;86.36;101262.56;5026723;28;20249;-70
2022/04/11 05:53:44;;;;;;;5.77;4.00;;;;;;;1.67;86.32;101256.38;5023568;28;20707;-70
2022/04/11 05:56:12;;;;;;;6.37;4.10;;;;;;;1.73;86.69;101255.41;5020010;28;20212;-70
2022/04/11 05:58:39;;;;;;;6.60;4.10;;;;;;;1.79;86.67;101250.06;5023563;28;20230;-70
2022/04/11 06:01:05;;;;;;;6.13;3.63;;;;;;;1.83;86.64;101250.84;5031606;28;20510;-70
2022/04/11 06:03:32;;;;;;;6.53;3.47;;;;;;;1.86;86.59;101254.28;5027046;28;20210;-70
2022/04/11 06:05:58;;;;;;;5.43;2.90;;;;;;;1.90;85.98;101245.47;5030638;28;20217;-70
2022/04/11 06:08:25;;;;;;;3.00;2.70;;;;;;;1.94;85.73;101244.53;5028870;28;20686;-69
2022/04/11 06:10:51;;;;;;;4.67;3.30;;;;;;;1.98;85.97;101253.19;5030321;28;20210;-69
2022/04/11 06:13:19;;;;;;;3.90;2.97;;;;;;;2.03;85.46;101248.72;5028372;28;20215;-70
2022/04/11 06:15:46;;;;;;;4.37;2.80;;;;;;;2.12;86.08;101245.06;5027302;28;20203;-70
2022/04/11 06:18:12;;;;;;;5.07;2.70;;;;;;;2.22;85.85;101254.50;5026310;28;20228;-70
2022/04/11 06:20:39;;;;;;;6.37;3.03;;;;;;;2.30;85.77;101249.97;5030898;28;20217;-70
2022/04/11 06:23:06;;;;;;;4.07;2.80;;;;;;;2.37;85.18;101248.94;5027397;28;20614;-70
2022/04/11 06:25:32;;;;;;;3.80;2.90;;;;;;;2.44;85.17;101258.44;5028435;28;20240;-70
2022/04/11 06:27:59;;;;;;;5.50;3.13;;;;;;;2.54;84.53;101262.59;5028469;28;20203;-69
2022/04/11 06:30:27;;;;;;;4.93;2.90;;;;;;;2.62;84.84;101255.44;5024542;28;20203;-69
2022/04/11 06:32:53;;;;;;;3.73;3.00;;;;;;;2.70;83.92;101253.50;5030827;28;20245;-70
2022/04/11 06:35:19;;;;;;;3.10;2.57;;;;;;;2.82;84.44;101248.88;5023363;28;20205;-70
2022/04/11 06:37:46;;;;;;;4.00;3.20;;;;;;;2.93;84.11;101254.75;5020242;28;20700;-70
2022/04/11 06:40:13;;;;;;;4.10;2.53;;;;;;;3.05;84.34;101260.59;5026965;28;20205;-70
2022/04/11 06:42:39;;;;;;;6.47;2.73;;;;;;;3.17;83.33;101262.09;5026085;28;20198;-69
2022/04/11 06:45:07;;;;;;;3.83;2.57;;;;;;;3.32;83.51;101260.88;5028260;28;20210;-70
2022/04/11 06:47:35;;;;;;;2.87;2.47;;;;;;;3.49;83.24;101258.69;5020886;28;20199;-70
2022/04/11 06:50:02;;;;;;;8.73;2.97;;;;;;;3.63;82.75;101261.84;5026377;28;20226;-70
2022/04/11 06:52:28;;;;;;;4.87;2.93;;;;;;;3.79;82.95;101262.31;5026462;28;20250;-70
2022/04/11 06:54:55;;;;;;;4.43;3.17;;;;;;;3.95;82.75;101255.75;5018886;28;20209;-69
2022/04/11 06:57:21;;;;;;;4.67;3.47;;;;;;;4.12;82.36;101256.16;5027042;28;20202;-69
2022/04/11 06:59:48;;;;;;;5.83;2.97;;;;;;;4.27;81.52;101247.00;5026902;28;20231;-70
2022/04/11 07:02:14;;;;;;;3.60;3.10;;;;;;;4.41;81.21;101255.38;5033374;28;20224;-70
2022/04/11 07:04:42;;;;;;;6.13;3.03;;;;;;;4.55;81.16;101236.50;5026584;28;20613;-70
2022/04/11 07:07:09;;;;;;;5.30;2.70;;;;;;;4.73;80.76;101243.88;5029622;28;20210;-70
2022/04/11 07:09:35;;;;;;;4.93;2.90;;;;;;;4.93;81.01;101240.63;5024442;28;20235;-69
2022/04/11 07:12:02;;;;;;;3.63;2.90;;;;;;;5.13;81.27;101237.38;5029788;28;20230;-71
2022/04/11 07:14:29;;;;;;;3.53;2.53;;;;;;;5.33;80.65;101234.09;5017769;28;20210;-70
2022/04/11 07:16:55;;;;;;;4.30;2.20;;;;;;;5.48;79.93;101239.75;5024027;28;20709;-70
2022/04/11 07:19:22;;;;;;;3.60;2.17;;;;;;;5.64;79.10;101229.53;5026008;28;20222;-70
2022/04/11 07:21:50;;;;;;;2.27;1.57;;;;;;;5.79;77.52;101231.66;5020850;28;20213;-70
2022/04/11 07:24:16;;;;;;;4.53;1.60;;;;;;;5.92;74.71;101226.81;5027832;28;20228;-70
2022/04/11 07:26:43;;;;;;;1.97;1.53;;;;;;;6.07;72.40;101236.03;5027748;28;20683;-70
2022/04/11 07:29:10;;;;;;;1.90;1.20;;;;;;;6.24;71.19;101234.50;5022510;28;20313;-70
2022/04/11 07:31:37;;;;;;;3.73;1.50;;;;;;;6.46;70.10;101233.69;5025871;28;20398;-70
2022/04/11 07:34:03;;;;;;;6.37;4.47;;;;;;;6.67;69.66;101232.88;5029632;28;20205;-70
2022/04/11 07:36:30;;;;;;;1.37;1.20;;;;;;;6.89;67.17;101233.78;5025938;28;20206;-70
2022/04/11 07:38:59;;;;;;;2.47;1.50;;;;;;;7.07;65.31;101237.50;5024044;28;20232;-70
2022/04/11 07:41:25;;;;;;;2.20;1.30;;;;;;;7.26;64.32;101235.84;5022219;28;20203;-70
2022/04/11 07:43:53;;;;;;;2.20;1.30;;;;;;;7.48;63.50;101240.28;5025121;28;20225;-70
2022/04/11 07:46:20;;;;;;;2.50;1.10;;;;;;;7.66;61.53;101229.78;5028630;28;20237;-70
2022/04/11 07:48:46;;;;;;;5.10;1.43;;;;;;;7.84;60.32;101230.78;5024931;28;20309;-70
2022/04/11 07:51:13;;;;;;;3.57;1.30;;;;;;;7.98;58.67;101240.81;5030280;28;20217;-70
2022/04/11 07:53:39;;;;;;;3.10;1.30;;;;;;;8.13;58.23;101239.28;5022989;28;20712;-70
2022/04/11 07:56:07;;;;;;;1.67;1.27;;;;;;;8.29;58.14;101233.22;5021755;28;20218;-70
2022/04/11 07:58:34;;;;;;;3.80;1.50;;;;;;;8.50;57.49;101233.22;5019621;28;20708;-70
2022/04/11 08:01:00;;;;;;;2.37;1.40;;;;;;;8.71;57.91;101232.25;5023752;28;20199;-70
2022/04/11 08:03:27;;;;;;;3.03;1.87;;;;;;;8.92;57.29;101225.94;5025036;28;20214;-70
2022/04/11 08:05:53;;;;;;;3.70;1.50;;;;;;;9.11;56.37;101227.72;5021141;28;20206;-70
2022/04/11 08:08:20;;;;;;;6.30;2.43;;;;;;;9.30;55.80;101231.19;5024401;28;20225;-70
2022/04/11 08:10:46;;;;;;;4.17;1.50;;;;;;;9.50;54.78;101241.69;5024384;28;20202;-70
2022/04/11 08:13:14;;;;;;;3.40;1.30;;;;;;;9.65;53.46;101238.28;5015936;28;20593;-70
2022/04/11 08:15:41;;;;;;;3.00;1.33;;;;;;;9.80;52.98;101233.13;5022743;28;20643;-70
2022/04/11 08:18:08;;;;;;;4.53;1.60;;;;;;;9.91;52.24;101233.44;5022020;28;20279;-70
2022/04/11 08:20:34;;;;;;;4.27;1.63;;;;;;;10.03;52.68;101233.66;5021671;28;20207;-70
2022/04/11 08:23:01;;;;;;;1.90;1.27;;;;;;;10.15;51.26;101242.81;5028808;28;20206;-70
2022/04/11 08:25:28;;;;;;;2.47;0.93;;;;;;;10.27;50.94;101225.38;5018883;28;20210;-70
2022/04/11 08:27:54;;;;;;;2.67;1.20;;;;;;;10.41;50.02;101239.66;5020391;28;20306;-69
2022/04/11 08:30:22;;;;;;;3.00;1.50;;;;;;;10.52;49.62;101232.91;5013802;28;20211;-70
2022/04/11 08:32:51;;;;;;;4.57;1.60;;;;;;;10.65;49.32;101231.31;5021231;28;20692;-69
2022/04/11 08:35:20;;;;;;;1.80;1.30;;;;;;;10.76;48.74;101228.91;5016623;28;20200;-70
2022/04/11 08:37:47;;;;;;;7.00;1.60;;;;;;;10.85;48.75;101227.56;5017755;28;20338;-70
2022/04/11 08:40:15;;;;;;;1.93;1.17;;;;;;;10.97;48.18;101232.19;5015254;28;20205;-70
2022/04/11 08:42:44;;;;;;;2.80;1.40;;;;;;;11.09;47.09;101228.88;5017527;28;20207;-70
2022/04/11 08:45:13;;;;;;;3.30;1.30;;;;;;;11.18;46.27;101233.66;5017337;28;20210;-70
2022/04/11 08:47:41;;;;;;;4.33;1.63;;;;;;;11.29;47.14;101238.38;5013197;28;20214;-70
2022/04/11 08:50:08;;;;;;;2.70;1.50;;;;;;;11.40;46.28;101242.16;5016643;28;20237;-70
2022/04/11 08:52:35;;;;;;;4.40;1.60;;;;;;;11.53;46.28;101236.97;5017161;28;20239;-70
2022/04/11 08:55:02;;;;;;;4.10;1.30;;;;;;;11.68;45.42;101244.06;5018042;28;20213;-70
2022/04/11 08:57:29;;;;;;;3.03;1.30;;;;;;;11.82;45.34;101246.81;5019377;28;20206;-70
2022/04/11 08:59:56;;;;;;;2.47;1.43;;;;;;;11.94;44.88;101239.06;5024472;28;20862;-70
2022/04/11 09:02:32;;;;;;;1.97;1.30;;;;;;;12.06;44.72;101238.31;5023264;28;20198;-70
2022/04/11 09:05:00;;;;;;;3.83;1.37;;;;;;;12.14;43.19;101234.25;5018354;28;20206;-70
2022/04/11 09:07:26;;;;;;;3.03;1.37;;;;;;;12.24;43.35;101241.69;5015345;28;20387;-70
2022/04/11 09:09:53;;;;;;;2.43;1.37;;;;;;;12.29;42.51;101235.13;5018897;28;20232;-70
2022/04/11 09:12:20;;;;;;;2.23;1.33;;;;;;;12.37;42.78;101240.84;5024766;28;20796;-70
2022/04/11 09:14:52;;;;;;;1.93;1.17;;;;;;;12.47;43.09;101231.31;5024339;28;20204;-70
2022/04/11 09:17:19;;;;;;;3.27;1.40;;;;;;;12.60;42.37;101231.41;5023676;28;20681;-70
2022/04/11 09:19:45;;;;;;;2.90;1.80;;;;;;;12.75;42.77;101229.56;5029687;28;20237;-70
2022/04/11 09:22:29;;;;;;;4.40;1.60;;;;;;;12.90;42.30;101227.78;5029427;28;20194;-70
2022/04/11 09:25:07;;;;;;;3.03;1.67;;;;;;;12.99;42.32;101233.38;5028472;28;20209;-70
2022/04/11 09:27:33;;;;;;;3.33;1.47;;;;;;;13.05;41.66;101229.47;5015795;28;20214;-70
2022/04/11 09:30:00;;;;;;;3.40;1.50;;;;;;;13.06;41.15;101221.34;5017454;28;20677;-70
2022/04/11 09:32:26;;;;;;;2.67;1.60;;;;;;;13.06;40.52;101224.00;5015231;28;20228;-70
2022/04/11 09:34:54;;;;;;;2.37;1.50;;;;;;;13.01;39.71;101220.75;5014108;28;20295;-69
2022/04/11 09:37:22;;;;;;;10.57;2.60;;;;;;;13.00;39.69;101223.53;5021919;28;20203;-71
2022/04/11 09:39:55;;;;;;;3.13;1.60;;;;;;;13.02;39.44;101216.28;5013413;28;20223;-71
2022/04/11 09:42:30;;;;;;;5.47;1.60;;;;;;;13.04;39.27;101214.38;5014398;28;20203;-70
2022/04/11 09:45:00;;;;;;;3.30;1.40;;;;;;;13.08;38.65;101206.03;5022020;28;20210;-70
2022/04/11 09:47:27;;;;;;;3.00;1.77;;;;;;;13.06;38.13;101207.97;5016969;28;20947;-70
2022/04/11 09:49:54;;;;;;;2.67;1.27;;;;;;;13.08;37.98;101216.72;5012128;28;20227;-70
2022/04/11 09:52:29;;;;;;;3.17;1.60;;;;;;;13.11;37.09;101216.53;5014311;28;20242;-70
2022/04/11 09:54:58;;;;;;;3.03;1.70;;;;;;;13.14;37.33;101221.69;5019864;28;20259;-70
2022/04/11 09:57:30;;;;;;;3.53;2.10;;;;;;;13.23;37.52;101204.22;5015591;28;20616;-70
2022/04/11 10:00:00;;;;;;;2.87;1.93;;;;;;;13.32;37.84;101203.59;5015887;28;20223;-69
2022/04/11 10:02:28;;;;;;;3.10;1.93;;;;;;;13.41;37.42;101205.69;5014001;28;20206;-71
2022/04/11 10:04:55;;;;;;;3.17;1.80;;;;;;;13.44;37.12;101207.28;5018151;28;20578;-70
2022/04/11 10:07:23;;;;;;;2.57;2.20;;;;;;;13.48;36.22;101208.78;5017500;28;20211;-70
2022/04/11 10:09:50;;;;;;;8.23;3.67;;;;;;;13.49;35.99;101202.47;5018426;28;20617;-70
2022/04/11 10:12:18;;;;;;;5.47;2.70;;;;;;;13.44;35.60;101197.44;5019802;28;20214;-69
2022/04/11 10:14:47;;;;;;;4.70;3.20;;;;;;;13.45;36.11;101196.47;5019291;28;20203;-70
2022/04/11 10:17:14;;;;;;;5.10;2.20;;;;;;;13.48;35.79;101198.09;5017351;28;20218;-69
2022/04/11 10:19:42;;;;;;;4.93;2.50;;;;;;;13.53;36.36;101193.28;5025266;28;20688;-70
2022/04/11 10:22:18;;;;;;;3.77;2.90;;;;;;;13.60;36.15;101183.91;5030833;28;20220;-69
2022/04/11 10:24:57;;;;;;;3.97;3.23;;;;;;;13.69;36.39;101183.28;5024797;28;20692;-69
2022/04/11 10:27:25;;;;;;;4.10;3.00;;;;;;;13.74;35.85;101180.28;5024445;28;20256;-69
2022/04/11 10:29:53;;;;;;;6.30;4.00;;;;;;;13.79;35.18;101188.88;5031374;28;20233;-69
2022/04/11 10:32:21;;;;;;;4.53;3.00;;;;;;;13.88;34.90;101182.88;5033838;28;20205;-69
2022/04/11 10:34:52;;;;;;;3.50;2.83;;;;;;;13.97;34.59;101181.41;5022087;28;20210;-70
2022/04/11 10:37:21;;;;;;;3.97;2.97;;;;;;;14.03;34.79;101172.91;5032649;28;20240;-70
2022/04/11 10:39:51;;;;;;;4.13;3.27;;;;;;;14.04;34.18;101174.63;5033228;28;20230;-70
2022/04/11 10:42:22;;;;;;;5.27;3.23;;;;;;;14.05;33.96;101173.66;5031493;28;20194;-70
2022/04/11 10:44:50;;;;;;;6.03;3.90;;;;;;;14.09;34.03;101162.66;5022957;28;20701;-70
2022/04/11 10:47:42;;;;;;;5.13;3.80;;;;;;;14.09;33.88;101177.84;5019037;28;20211;-70
2022/04/11 10:50:33;;;;;;;4.00;3.60;;;;;;;13.99;33.57;101166.91;5021466;28;20310;-69
2022/04/11 10:53:23;;;;;;;4.13;2.93;;;;;;;13.95;33.88;101175.28;5020842;28;20226;-69
2022/04/11 10:56:05;;;;;;;4.77;3.00;;;;;;;13.99;34.68;101168.72;5020987;28;20203;-70
2022/04/11 10:58:44;;;;;;;4.93;3.00;;;;;;;14.09;34.67;101165.31;5016046;28;20233;-70
2022/04/11 11:01:11;;;;;;;6.97;2.60;;;;;;;14.17;34.84;101164.78;5019426;28;20213;-69
2022/04/11 11:03:40;;;;;;;4.00;2.70;;;;;;;14.27;34.41;101163.19;5023107;28;20701;-70
2022/04/11 11:06:18;;;;;;;3.73;2.90;;;;;;;14.37;34.41;101156.19;5024760;28;20290;-70
2022/04/11 11:08:45;;;;;;;5.27;2.67;;;;;;;14.44;33.90;101154.84;5023409;28;20234;-70
2022/04/11 11:11:24;;;;;;;6.43;3.23;;;;;;;14.52;34.17;101157.81;5020316;28;20217;-70
2022/04/11 11:13:52;;;;;;;5.33;3.00;;;;;;;14.51;33.87;101158.75;5018555;28;20233;-70
2022/04/11 11:16:39;;;;;;;4.67;3.13;;;;;;;14.48;33.51;101152.78;5023214;28;20212;-69
2022/04/11 11:19:17;;;;;;;5.40;3.30;;;;;;;14.49;33.13;101144.66;5023605;28;20827;-70
2022/04/11 11:22:14;;;;;;;4.20;2.67;;;;;;;14.41;33.60;101148.81;5026290;28;20210;-70
2022/04/11 11:25:15;;;;;;;6.43;3.10;;;;;;;14.46;34.40;101134.16;4985661;28;20212;-70
2022/04/11 11:27:45;;;;;;;5.27;2.90;;;;;;;14.56;35.13;101135.19;5018888;28;20686;-70
2022/04/11 11:30:12;;;;;;;4.40;3.10;;;;;;;14.65;34.51;101132.81;5022858;28;20648;-70
2022/04/11 11:32:40;;;;;;;3.70;3.33;;;;;;;14.67;33.96;101130.88;5021117;28;20641;-70
2022/04/11 11:35:08;;;;;;;5.03;2.80;;;;;;;14.72;34.13;101131.38;5024566;28;21255;-70